createdAt,value
2019-03-10T00:01:36.056Z,100590.30
2019-03-10T00:04:07.502Z,100601.11
2019-03-10T00:06:39.031Z,100584.50
2019-03-10T00:09:10.306Z,100586.67
2019-03-10T00:11:41.907Z,100602.61
2019-03-10T00:14:13.615Z,100607.14
2019-03-10T00:16:44.936Z,100595.28
2019-03-10T00:19:25.827Z,100616.46
2019-03-10T00:21:57.740Z,100608.94
2019-03-10T00:24:29.361Z,100607.40
2019-03-10T00:27:00.750Z,100594.27
2019-03-10T00:29:32.023Z,100592.19
2019-03-10T00:32:03.193Z,100594.17
2019-03-10T00:34:34.545Z,100575.41
2019-03-10T00:37:05.890Z,100578.44
2019-03-10T00:40:23.353Z,100583.22
2019-03-10T00:43:48.020Z,100593.35
2019-03-10T00:46:53.533Z,100570.81
2019-03-10T00:50:00.969Z,100581.43
2019-03-10T00:52:42.912Z,100592.48
2019-03-10T00:55:15.115Z,100591.70
2019-03-10T00:57:47.585Z,100582.97
2019-03-10T01:00:19.059Z,100577.84
2019-03-10T01:02:50.360Z,100571.81
2019-03-10T01:05:21.623Z,100567.03
2019-03-10T01:07:52.933Z,100573.94
2019-03-10T01:10:24.197Z,100565.73
2019-03-10T01:12:55.446Z,100566.12
2019-03-10T01:15:27.222Z,100561.72
2019-03-10T01:17:59.344Z,100559.98
2019-03-10T01:20:30.929Z,100565.50
2019-03-10T01:23:02.356Z,100583.64
2019-03-10T01:25:33.772Z,100568.30
2019-03-10T01:28:05.228Z,100567.42
2019-03-10T01:30:42.402Z,100562.59
2019-03-10T01:34:02.232Z,100564.29
2019-03-10T01:36:43.669Z,100543.05
2019-03-10T01:39:20.923Z,100542.23
2019-03-10T01:41:59.228Z,100529.72
2019-03-10T01:44:37.816Z,100536.34
2019-03-10T01:47:12.640Z,100532.42
2019-03-10T01:49:43.878Z,100525.09
2019-03-10T01:52:15.167Z,100521.09
2019-03-10T01:54:46.581Z,100529.81
2019-03-10T01:57:17.912Z,100536.34
2019-03-10T01:59:49.145Z,100529.81
2019-03-10T02:02:25.526Z,100530.73
2019-03-10T02:04:53.590Z,100530.73
2019-03-10T02:07:24.903Z,100519.00
2019-03-10T02:09:56.187Z,100536.95
2019-03-10T02:12:27.588Z,100531.41
2019-03-10T02:14:59.079Z,100518.08
2019-03-10T02:17:30.397Z,100522.52
2019-03-10T02:20:01.625Z,100522.70
2019-03-10T02:22:32.998Z,100516.38
2019-03-10T02:25:04.558Z,100513.08
2019-03-10T02:27:35.843Z,100516.70
2019-03-10T02:30:08.316Z,100515.88
2019-03-10T02:32:39.621Z,100490.33
2019-03-10T02:35:10.920Z,100491.72
2019-03-10T02:37:42.223Z,100485.00
2019-03-10T02:40:13.466Z,100471.27
2019-03-10T02:42:44.797Z,100463.94
2019-03-10T02:45:16.081Z,100468.46
2019-03-10T02:47:47.397Z,100463.34
2019-03-10T02:50:18.616Z,100476.38
2019-03-10T02:52:49.983Z,100468.06
2019-03-10T02:55:21.438Z,100459.72
2019-03-10T02:57:53.789Z,100449.81
2019-03-10T03:00:25.206Z,100451.60
2019-03-10T03:02:56.486Z,100452.60
2019-03-10T03:05:27.758Z,100444.26
2019-03-10T03:07:59.114Z,100429.43
2019-03-10T03:10:30.377Z,100433.73
2019-03-10T03:13:01.706Z,100419.82
2019-03-10T03:15:33.009Z,100423.21
2019-03-10T03:18:04.334Z,100429.25
2019-03-10T03:20:35.633Z,100420.12
2019-03-10T03:23:06.923Z,100428.42
2019-03-10T03:25:38.205Z,100427.73
2019-03-10T03:28:09.459Z,100419.19
2019-03-10T03:30:40.915Z,100400.63
2019-03-10T03:33:12.362Z,100407.36
2019-03-10T03:36:03.035Z,100392.80
2019-03-10T03:38:40.300Z,100400.33
2019-03-10T03:41:14.033Z,100394.47
2019-03-10T03:43:45.305Z,100396.47
2019-03-10T03:46:16.541Z,100381.91
2019-03-10T03:48:47.927Z,100386.91
2019-03-10T03:51:24.382Z,100370.95
2019-03-10T03:53:58.229Z,100365.94
2019-03-10T03:56:29.610Z,100350.38
2019-03-10T03:59:00.916Z,100351.77
2019-03-10T04:01:54.032Z,100354.98
2019-03-10T04:04:25.269Z,100355.46
2019-03-10T04:06:57.562Z,100365.59
2019-03-10T04:09:28.812Z,100351.24
2019-03-10T04:12:00.116Z,100345.28
2019-03-10T04:14:31.590Z,100367.08
2019-03-10T04:17:02.947Z,100383.25
2019-03-10T04:19:34.207Z,100379.52
2019-03-10T04:22:05.531Z,100366.28
2019-03-10T04:24:36.775Z,100365.16
2019-03-10T04:27:08.078Z,100375.69
2019-03-10T04:29:39.377Z,100369.25
2019-03-10T04:32:10.642Z,100356.41
2019-03-10T04:34:41.967Z,100369.55
2019-03-10T04:37:13.250Z,100368.33
2019-03-10T04:39:44.544Z,100359.67
2019-03-10T04:42:16.244Z,100360.67
2019-03-10T04:44:47.574Z,100364.27
2019-03-10T04:47:18.845Z,100351.66
2019-03-10T04:49:50.076Z,100350.91
2019-03-10T04:52:21.452Z,100348.81
2019-03-10T04:54:59.823Z,100346.20
2019-03-10T04:57:31.133Z,100345.30
2019-03-10T05:00:02.533Z,100344.39
2019-03-10T05:02:33.861Z,100340.47
2019-03-10T05:05:05.132Z,100326.11
2019-03-10T05:07:36.424Z,100322.20
2019-03-10T05:10:07.785Z,100323.50
2019-03-10T05:12:39.051Z,100307.75
2019-03-10T05:15:10.371Z,100303.92
2019-03-10T05:17:41.635Z,100295.17
2019-03-10T05:20:12.995Z,100294.87
2019-03-10T05:22:44.252Z,100295.86
2019-03-10T05:25:17.449Z,100299.47
2019-03-10T05:27:48.775Z,100297.45
2019-03-10T05:30:20.008Z,100292.71
2019-03-10T05:32:51.306Z,100293.31
2019-03-10T05:35:22.517Z,100293.39
2019-03-10T05:37:53.812Z,100278.33
2019-03-10T05:40:25.104Z,100272.36
2019-03-10T05:42:56.339Z,100279.48
2019-03-10T05:45:27.665Z,100281.87
2019-03-10T05:47:58.880Z,100277.64
2019-03-10T05:50:30.222Z,100273.88
2019-03-10T05:53:01.540Z,100266.56
2019-03-10T05:55:32.836Z,100262.33
2019-03-10T05:58:04.093Z,100258.06
2019-03-10T06:00:42.715Z,100258.89
2019-03-10T06:03:08.331Z,100260.28
2019-03-10T06:05:39.579Z,100258.66
2019-03-10T06:08:11.023Z,100255.25
2019-03-10T06:10:42.364Z,100251.41
2019-03-10T06:13:13.731Z,100237.60
2019-03-10T06:15:46.185Z,100231.19
2019-03-10T06:18:17.469Z,100232.27
2019-03-10T06:20:48.800Z,100227.98
2019-03-10T06:23:20.211Z,100220.74
2019-03-10T06:25:51.545Z,100213.41
2019-03-10T06:28:23.214Z,100212.27
2019-03-10T06:30:56.348Z,100210.13
2019-03-10T06:33:27.538Z,100207.13
2019-03-10T06:35:58.816Z,100205.89
2019-03-10T06:38:30.119Z,100202.80
2019-03-10T06:41:01.384Z,100201.58
2019-03-10T06:43:32.630Z,100204.19
2019-03-10T06:46:05.139Z,100200.27
2019-03-10T06:48:36.432Z,100199.44
2019-03-10T06:51:07.836Z,100196.51
2019-03-10T06:53:39.107Z,100189.58
2019-03-10T06:56:10.493Z,100185.34
2019-03-10T06:58:41.899Z,100184.51
2019-03-10T07:01:13.151Z,100181.89
2019-03-10T07:03:44.456Z,100174.56
2019-03-10T07:06:15.749Z,100163.28
2019-03-10T07:08:47.056Z,100164.27
2019-03-10T07:11:18.491Z,100164.77
2019-03-10T07:13:49.774Z,100161.84
2019-03-10T07:16:21.045Z,100157.56
2019-03-10T07:18:52.337Z,100157.75
2019-03-10T07:21:24.692Z,100146.98
2019-03-10T07:23:55.934Z,100134.30
2019-03-10T07:26:27.561Z,100131.77
2019-03-10T07:29:23.530Z,100127.59
2019-03-10T07:32:13.841Z,100127.67
2019-03-10T07:35:00.454Z,100119.19
2019-03-10T07:37:59.526Z,100127.21
2019-03-10T07:40:52.579Z,100113.38
2019-03-10T07:43:49.963Z,100104.89
2019-03-10T07:46:33.641Z,100099.41
2019-03-10T07:49:22.936Z,100093.45
2019-03-10T07:52:28.716Z,100089.75
2019-03-10T07:55:22.717Z,100084.77
2019-03-10T07:58:13.027Z,100083.20
2019-03-10T08:01:00.654Z,100075.10
2019-03-10T08:03:48.954Z,100077.47
2019-03-10T08:06:32.922Z,100072.81
2019-03-10T08:09:13.688Z,100062.12
2019-03-10T08:12:03.520Z,100054.42
2019-03-10T08:14:50.637Z,100053.76
2019-03-10T08:17:27.509Z,100051.28
2019-03-10T08:20:20.655Z,100041.94
2019-03-10T08:23:10.997Z,100047.01
2019-03-10T08:26:00.782Z,100034.13
2019-03-10T08:28:49.865Z,100030.12
2019-03-10T08:31:28.394Z,100021.73
2019-03-10T08:34:18.733Z,100018.08
2019-03-10T08:37:07.973Z,100014.79
2019-03-10T08:39:52.968Z,100012.81
2019-03-10T08:42:37.109Z,100020.39
2019-03-10T08:45:14.887Z,100015.16
2019-03-10T08:48:11.195Z,100001.16
2019-03-10T08:50:57.431Z,99990.35
2019-03-10T08:53:54.867Z,99990.52
2019-03-10T08:56:45.085Z,99977.05
2019-03-10T08:59:25.732Z,99977.05
2019-03-10T09:02:16.511Z,99979.84
2019-03-10T09:05:05.726Z,99971.14
2019-03-10T09:07:54.565Z,99973.76
2019-03-10T09:10:43.884Z,99967.21
2019-03-10T09:13:43.501Z,99968.18
2019-03-10T09:16:33.771Z,99954.69
2019-03-10T09:19:16.163Z,99949.91
2019-03-10T09:22:05.181Z,99940.81
2019-03-10T09:25:00.449Z,99937.85
2019-03-10T09:27:50.691Z,99937.11
2019-03-10T09:30:39.623Z,99931.13
2019-03-10T09:33:40.188Z,99923.73
2019-03-10T09:36:36.623Z,99914.56
2019-03-10T09:39:25.861Z,99913.47
2019-03-10T09:42:14.755Z,99910.69
2019-03-10T09:44:52.883Z,99910.28
2019-03-10T09:47:41.863Z,99908.45
2019-03-10T09:50:31.235Z,99901.27
2019-03-10T09:53:18.252Z,99894.44
2019-03-10T09:56:17.591Z,99889.63
2019-03-10T09:59:01.026Z,99888.99
2019-03-10T10:01:57.227Z,99872.57
2019-03-10T10:04:48.781Z,99869.73
2019-03-10T10:07:52.972Z,99877.16
2019-03-10T10:10:45.935Z,99878.40
2019-03-10T10:13:45.346Z,99863.08
2019-03-10T10:16:29.117Z,99869.01
2019-03-10T10:19:14.724Z,99868.77
2019-03-10T10:22:08.211Z,99860.45
2019-03-10T10:24:57.998Z,99845.64
2019-03-10T10:27:51.925Z,99840.98
2019-03-10T10:30:40.310Z,99834.57
2019-03-10T10:33:30.656Z,99826.89
2019-03-10T10:36:12.187Z,99826.13
2019-03-10T10:39:01.429Z,99818.91
2019-03-10T10:41:52.318Z,99810.72
2019-03-10T10:44:48.513Z,99814.08
2019-03-10T10:47:34.487Z,99807.27
2019-03-10T10:50:37.632Z,99803.06
2019-03-10T10:53:24.130Z,99784.41
2019-03-10T10:56:26.535Z,99791.08
2019-03-10T10:59:16.146Z,99774.23
2019-03-10T11:02:12.332Z,99769.97
2019-03-10T11:04:52.633Z,99758.19
2019-03-10T11:07:32.347Z,99748.69
2019-03-10T11:10:32.217Z,99726.07
2019-03-10T11:13:21.360Z,99723.61
2019-03-10T11:16:17.905Z,99720.66
2019-03-10T11:19:09.173Z,99710.66
2019-03-10T11:22:02.209Z,99716.05
2019-03-10T11:24:37.763Z,99708.25
2019-03-10T11:27:37.273Z,99693.52
2019-03-10T11:30:27.222Z,99687.03
2019-03-10T11:33:23.550Z,99679.30
2019-03-10T11:36:17.669Z,99669.33
2019-03-10T11:38:56.153Z,99665.52
2019-03-10T11:41:34.126Z,99654.70
2019-03-10T11:44:26.084Z,99645.59
2019-03-10T11:47:12.840Z,99640.02
2019-03-10T11:50:02.180Z,99623.91
2019-03-10T11:52:55.197Z,99622.70
2019-03-10T11:55:51.894Z,99599.61
2019-03-10T11:58:47.560Z,99596.23
2019-03-10T12:01:46.850Z,99588.84
2019-03-10T12:04:37.165Z,99589.34
2019-03-10T12:07:21.158Z,99582.03
2019-03-10T12:09:52.534Z,99582.50
2019-03-10T12:12:23.807Z,99582.09
2019-03-10T12:14:55.109Z,99574.64
2019-03-10T12:17:26.399Z,99563.77
2019-03-10T12:19:57.670Z,99557.63
2019-03-10T12:22:28.948Z,99556.27
2019-03-10T12:25:00.505Z,99554.45
2019-03-10T12:27:32.167Z,99545.73
2019-03-10T12:30:03.913Z,99552.19
2019-03-10T12:32:35.464Z,99537.27
2019-03-10T12:35:06.846Z,99530.73
2019-03-10T12:37:38.090Z,99528.52
2019-03-10T12:40:11.112Z,99527.20
2019-03-10T12:42:48.548Z,99513.66
2019-03-10T12:45:21.983Z,99515.92
2019-03-10T12:47:53.296Z,99501.93
2019-03-10T12:50:24.785Z,99493.72
2019-03-10T12:52:56.313Z,99495.49
2019-03-10T12:55:27.805Z,99484.20
2019-03-10T12:58:00.289Z,99486.03
2019-03-10T13:00:31.642Z,99480.84
2019-03-10T13:03:02.930Z,99472.18
2019-03-10T13:05:34.246Z,99469.97
2019-03-10T13:08:05.743Z,99466.45
2019-03-10T13:10:37.712Z,99466.04
2019-03-10T13:13:08.976Z,99450.33
2019-03-10T13:15:45.446Z,99451.23
2019-03-10T13:18:18.783Z,99447.30
2019-03-10T13:20:50.465Z,99431.19
2019-03-10T13:23:21.836Z,99421.58
2019-03-10T13:25:54.108Z,99413.31
2019-03-10T13:28:26.854Z,99401.58
2019-03-10T13:30:58.615Z,99395.53
2019-03-10T13:33:30.024Z,99383.75
2019-03-10T13:36:01.537Z,99391.66
2019-03-10T13:38:33.074Z,99385.16
2019-03-10T13:41:04.330Z,99389.09
2019-03-10T13:43:35.881Z,99382.55
2019-03-10T13:46:07.216Z,99377.66
2019-03-10T13:48:38.590Z,99365.47
2019-03-10T13:51:10.040Z,99363.21
2019-03-10T13:53:41.366Z,99360.55
2019-03-10T13:56:12.666Z,99349.58
2019-03-10T13:58:44.151Z,99348.62
2019-03-10T14:01:15.863Z,99341.21
2019-03-10T14:03:47.247Z,99342.08
2019-03-10T14:06:18.515Z,99343.88
2019-03-10T14:08:49.830Z,99332.55
2019-03-10T14:11:21.040Z,99321.63
2019-03-10T14:13:52.307Z,99310.20
2019-03-10T14:16:23.693Z,99307.99
2019-03-10T14:18:55.042Z,99296.16
2019-03-10T14:21:26.473Z,99294.86
2019-03-10T14:23:57.710Z,99296.16
2019-03-10T14:26:29.016Z,99289.62
2019-03-10T14:29:00.253Z,99266.47
2019-03-10T14:31:32.746Z,99278.69
2019-03-10T14:34:04.158Z,99267.27
2019-03-10T14:36:35.504Z,99265.06
2019-03-10T14:39:08.328Z,99271.61
2019-03-10T14:41:40.573Z,99261.03
2019-03-10T14:44:11.905Z,99261.03
2019-03-10T14:46:43.617Z,99241.77
2019-03-10T14:49:22.654Z,99226.42
2019-03-10T14:51:47.907Z,99212.84
2019-03-10T14:54:19.229Z,99206.25
2019-03-10T14:56:50.570Z,99204.94
2019-03-10T14:59:21.897Z,99203.63
2019-03-10T15:01:53.273Z,99191.40
2019-03-10T15:04:24.575Z,99199.70
2019-03-10T15:06:55.810Z,99208.46
2019-03-10T15:09:27.125Z,99200.20
2019-03-10T15:11:58.488Z,99185.36
2019-03-10T15:14:29.868Z,99180.56
2019-03-10T15:17:02.108Z,99180.08
2019-03-10T15:19:33.577Z,99184.00
2019-03-10T15:22:05.228Z,99184.00
2019-03-10T15:24:37.800Z,99181.38
2019-03-10T15:27:09.192Z,99170.05
2019-03-10T15:29:40.651Z,99171.77
2019-03-10T15:32:11.934Z,99179.62
2019-03-10T15:34:43.261Z,99169.97
2019-03-10T15:37:14.521Z,99159.05
2019-03-10T15:39:45.848Z,99152.55
2019-03-10T15:42:17.196Z,99151.23
2019-03-10T15:44:49.651Z,99133.28
2019-03-10T15:47:21.585Z,99145.47
2019-03-10T15:49:52.835Z,99152.02
2019-03-10T15:52:24.310Z,99140.63
2019-03-10T15:54:55.590Z,99130.16
2019-03-10T15:57:26.919Z,99126.60
2019-03-10T15:59:58.693Z,99129.22
2019-03-10T16:02:30.037Z,99133.50
2019-03-10T16:05:01.572Z,99119.94
2019-03-10T16:07:32.944Z,99118.16
2019-03-10T16:10:04.167Z,99109.83
2019-03-10T16:12:35.784Z,99113.75
2019-03-10T16:15:09.454Z,99101.06
2019-03-10T16:17:41.735Z,99111.98
2019-03-10T16:20:13.951Z,99111.05
2019-03-10T16:22:51.316Z,99107.12
2019-03-10T16:25:22.825Z,99108.38
2019-03-10T16:27:56.291Z,99112.27
2019-03-10T16:30:28.281Z,99122.67
2019-03-10T16:32:59.713Z,99130.45
2019-03-10T16:35:31.200Z,99130.40
2019-03-10T16:38:02.626Z,99144.74
2019-03-10T16:40:33.958Z,99112.89
2019-03-10T16:43:05.238Z,99108.97
2019-03-10T16:45:36.585Z,99108.48
2019-03-10T16:48:07.821Z,99096.70
2019-03-10T16:50:39.169Z,99083.58
2019-03-10T16:53:16.211Z,99092.73
2019-03-10T16:55:51.096Z,99097.92
2019-03-10T16:58:30.232Z,99105.72
2019-03-10T17:01:09.659Z,99096.97
2019-03-10T17:03:42.360Z,99100.41
2019-03-10T17:06:15.854Z,99113.93
2019-03-10T17:08:48.053Z,99124.39
2019-03-10T17:11:21.129Z,99120.83
2019-03-10T17:13:53.008Z,99132.55
2019-03-10T17:16:31.426Z,99134.68
2019-03-10T17:19:16.896Z,99150.38
2019-03-10T17:21:48.583Z,99162.05
2019-03-10T17:24:21.351Z,99161.56
2019-03-10T17:26:52.941Z,99180.17
2019-03-10T17:29:25.419Z,99189.60
2019-03-10T17:32:01.279Z,99215.16
2019-03-10T17:34:41.810Z,99224.62
2019-03-10T17:37:13.293Z,99217.08
2019-03-10T17:39:44.569Z,99233.07
2019-03-10T17:42:15.792Z,99232.06
2019-03-10T17:44:47.121Z,99222.67
2019-03-10T17:47:18.360Z,99230.30
2019-03-10T17:49:49.865Z,99226.63
2019-03-10T17:52:21.096Z,99236.48
2019-03-10T17:54:52.360Z,99245.49
2019-03-10T17:57:23.584Z,99241.36
2019-03-10T17:59:55.129Z,99249.05
2019-03-10T18:02:26.442Z,99253.27
2019-03-10T18:04:57.770Z,99256.32
2019-03-10T18:07:29.632Z,99263.20
2019-03-10T18:10:00.867Z,99278.28
2019-03-10T18:12:32.243Z,99288.52
2019-03-10T18:15:08.575Z,99299.61
2019-03-10T18:17:36.638Z,99323.64
2019-03-10T18:20:10.587Z,99331.55
2019-03-10T18:22:41.871Z,99321.69
2019-03-10T18:25:13.397Z,99349.27
2019-03-10T18:27:44.779Z,99365.91
2019-03-10T18:30:17.221Z,99368.67
2019-03-10T18:32:48.738Z,99383.49
2019-03-10T18:35:20.065Z,99384.67
2019-03-10T18:37:53.053Z,99392.70
2019-03-10T18:40:28.062Z,99410.67
2019-03-10T18:43:00.983Z,99425.73
2019-03-10T18:45:37.927Z,99444.38
2019-03-10T18:48:11.862Z,99455.10
2019-03-10T18:50:44.625Z,99467.62
2019-03-10T18:53:17.796Z,99476.29
2019-03-10T18:55:49.515Z,99489.33
2019-03-10T18:58:22.693Z,99495.38
2019-03-10T19:00:54.086Z,99508.67
2019-03-10T19:03:25.410Z,99524.94
2019-03-10T19:05:56.871Z,99537.16
2019-03-10T19:08:28.540Z,99557.11
2019-03-10T19:11:02.726Z,99578.80
2019-03-10T19:13:34.419Z,99607.74
2019-03-10T19:16:05.899Z,99634.50
2019-03-10T19:18:37.426Z,99653.88
2019-03-10T19:21:09.249Z,99699.91
2019-03-10T19:23:40.549Z,99730.32
2019-03-10T19:26:11.975Z,99742.80
2019-03-10T19:28:43.276Z,99790.83
2019-03-10T19:31:14.544Z,99790.83
2019-03-10T19:33:46.052Z,99793.45
2019-03-10T19:36:17.389Z,99834.91
2019-03-10T19:38:48.708Z,99846.88
2019-03-10T19:41:20.188Z,99860.80
2019-03-10T19:43:51.534Z,99898.80
2019-03-10T19:46:23.839Z,99897.30
2019-03-10T19:48:57.796Z,99916.91
2019-03-10T19:51:29.136Z,99932.55
2019-03-10T19:54:00.557Z,99950.99
2019-03-10T19:56:32.167Z,99975.70
2019-03-10T19:59:03.900Z,99973.88
2019-03-10T20:01:35.291Z,99995.31
2019-03-10T20:04:06.703Z,100010.34
2019-03-10T20:06:38.121Z,100017.02
2019-03-10T20:09:09.576Z,100029.34
2019-03-10T20:11:43.012Z,100035.82
2019-03-10T20:14:14.561Z,100048.78
2019-03-10T20:16:46.289Z,100055.27
2019-03-10T20:19:17.810Z,100077.02
2019-03-10T20:21:49.122Z,100090.50
2019-03-10T20:24:20.440Z,100101.36
2019-03-10T20:26:52.344Z,100120.80
2019-03-10T20:29:23.922Z,100132.72
2019-03-10T20:31:55.675Z,100130.23
2019-03-10T20:34:27.046Z,100137.62
2019-03-10T20:36:58.492Z,100140.22
2019-03-10T20:39:29.831Z,100151.19
2019-03-10T20:42:05.331Z,100172.94
2019-03-10T20:44:34.906Z,100162.68
2019-03-10T20:47:06.352Z,100181.56
2019-03-10T20:49:37.795Z,100178.59
2019-03-10T20:52:09.153Z,100195.77
2019-03-10T20:54:40.394Z,100196.50
2019-03-10T20:57:13.144Z,100205.02
2019-03-10T20:59:44.672Z,100208.11
2019-03-10T21:02:16.081Z,100210.03
2019-03-10T21:04:47.739Z,100225.70
2019-03-10T21:07:19.227Z,100228.93
2019-03-10T21:09:50.671Z,100247.30
2019-03-10T21:12:21.899Z,100254.31
2019-03-10T21:14:53.734Z,100258.03
2019-03-10T21:17:25.240Z,100263.71
2019-03-10T21:19:56.635Z,100264.34
2019-03-10T21:22:27.913Z,100266.13
2019-03-10T21:24:59.293Z,100279.46
2019-03-10T21:27:32.461Z,100285.25
2019-03-10T21:30:04.489Z,100285.98
2019-03-10T21:32:36.129Z,100285.33
2019-03-10T21:35:17.134Z,100304.09
2019-03-10T21:37:40.585Z,100304.72
2019-03-10T21:40:13.451Z,100320.92
2019-03-10T21:42:44.749Z,100320.75
2019-03-10T21:45:16.029Z,100331.56
2019-03-10T21:47:47.282Z,100331.56
2019-03-10T21:50:18.593Z,100340.89
2019-03-10T21:52:49.919Z,100364.97
2019-03-10T21:55:21.230Z,100358.47
2019-03-10T21:57:52.566Z,100358.47
2019-03-10T22:00:23.943Z,100358.72
2019-03-10T22:02:55.357Z,100377.67
2019-03-10T22:05:26.679Z,100382.09
2019-03-10T22:07:57.952Z,100391.17
2019-03-10T22:10:29.297Z,100396.09
2019-03-10T22:13:00.692Z,100388.69
2019-03-10T22:15:41.040Z,100393.49
2019-03-10T22:18:05.118Z,100395.81
2019-03-10T22:20:36.501Z,100401.00
2019-03-10T22:23:08.868Z,100401.22
2019-03-10T22:25:40.130Z,100401.22
2019-03-10T22:28:11.438Z,100412.52
2019-03-10T22:30:42.735Z,100416.52
2019-03-10T22:33:14.096Z,100413.39
2019-03-10T22:35:46.442Z,100414.59
2019-03-10T22:38:17.664Z,100422.77
2019-03-10T22:40:48.971Z,100419.29
2019-03-10T22:43:20.209Z,100421.88
2019-03-10T22:45:51.504Z,100426.97
2019-03-10T22:48:22.876Z,100447.91
2019-03-10T22:50:54.204Z,100434.78
2019-03-10T22:53:25.474Z,100439.38
2019-03-10T22:55:56.718Z,100454.84
2019-03-10T22:58:28.040Z,100442.91
2019-03-10T23:00:59.519Z,100443.24
2019-03-10T23:03:31.124Z,100474.34
2019-03-10T23:06:03.268Z,100474.34
2019-03-10T23:08:34.545Z,100458.05
2019-03-10T23:11:08.379Z,100482.18
2019-03-10T23:13:38.843Z,100478.06
2019-03-10T23:16:10.148Z,100485.33
2019-03-10T23:18:42.472Z,100477.81
2019-03-10T23:21:13.721Z,100492.08
2019-03-10T23:23:44.926Z,100501.86
2019-03-10T23:26:16.256Z,100483.70
2019-03-10T23:28:47.628Z,100490.67
2019-03-10T23:31:18.895Z,100490.67
2019-03-10T23:33:50.144Z,100487.80
2019-03-10T23:36:21.409Z,100497.53
2019-03-10T23:38:52.697Z,100504.56
2019-03-10T23:41:23.977Z,100502.03
2019-03-10T23:43:55.299Z,100504.77
2019-03-10T23:46:26.607Z,100500.46
2019-03-10T23:48:57.938Z,100503.75
2019-03-10T23:51:29.223Z,100498.89
2019-03-10T23:54:01.496Z,100514.08
2019-03-10T23:56:32.744Z,100514.08
2019-03-10T23:59:03.977Z,100527.97
